Terminal Aerodrome Forecast
Issued by NWS Newport/Morehead City, NC

Home | Current Version | Previous Version | Text Only | Print | Product List | Glossary Off
Versions: 1 2 3 4 5 6 7 8 9 10 11 12 13 14 15 16 17 18

000
FTUS42 KMHX 211739
TAFEWN
TAF
KEWN 211739Z 2118/2218 VRB04KT P6SM VCTS SCT050CB
      TEMPO 2118/2122 4SM TS BKN050CB
     FM220000 00000KT P6SM SCT050
     FM220800 00000KT 3SM BR SKC
     FM221300 00000KT P6SM SCT050=

USA.gov is the U.S. government's official web portal to all federal, state and local government web resources and services.